Terminal Aerodrome Forecast
Issued by NWS

Home | Current Version | Previous Version | Text Only | Print | Product List | Glossary On
Versions: 1 2 3 4 5 6 7 8 9 10 11 12 13
771
FTUS46 KHNX 291120
TAFBFL
TAF
KBFL 291120Z 2912/3012 VRB04KT P6SM SCT250
     FM292100 30008KT P6SM SCT250
      TEMPO 2922/3002 32012G19KT=

USA.gov is the U.S. government's official web portal to all federal, state and local government web resources and services.